sensor_id;sensor_type;location;lat;lon;timestamp;pressure;altitude;pressure_sealevel;temperature;humidity
42001;BME280;27689;48.390;10.856;2023-05-16T00:02:17;95778.19;;;9.36;100.00
42001;BME280;27689;48.390;10.856;2023-05-16T00:05:02;95780.31;;;9.33;100.00
42001;BME280;27689;48.390;10.856;2023-05-16T00:07:47;95772.69;;;9.39;100.00
42001;BME280;27689;48.390;10.856;2023-05-16T00:10:31;95769.63;;;9.44;100.00
42001;BME280;27689;48.390;10.856;2023-05-16T00:13:15;95768.13;;;9.41;100.00
42001;BME280;27689;48.390;10.856;2023-05-16T00:16:05;95768.56;;;9.37;100.00
42001;BME280;27689;48.390;10.856;2023-05-16T00:18:49;95771.31;;;9.35;100.00
42001;BME280;27689;48.390;10.856;2023-05-16T00:21:33;95762.28;;;9.30;100.00
42001;BME280;27689;48.390;10.856;2023-05-16T00:24:17;95768.63;;;9.27;100.00
42001;BME280;27689;48.390;10.856;2023-05-16T00:27:01;95760.03;;;9.17;100.00
42001;BME280;27689;48.390;10.856;2023-05-16T00:29:46;95769.13;;;9.13;100.00
42001;BME280;27689;48.390;10.856;2023-05-16T00:32:30;95767.22;;;9.05;100.00
42001;BME280;27689;48.390;10.856;2023-05-16T00:35:14;95761.72;;;9.08;100.00
42001;BME280;27689;48.390;10.856;2023-05-16T00:37:58;95753.06;;;9.08;100.00
42001;BME280;27689;48.390;10.856;2023-05-16T00:40:42;95760.75;;;9.09;100.00
42001;BME280;27689;48.390;10.856;2023-05-16T00:43:26;95762.31;;;9.02;100.00
42001;BME280;27689;48.390;10.856;2023-05-16T00:46:10;95757.13;;;8.93;100.00
42001;BME280;27689;48.390;10.856;2023-05-16T00:48:53;95762.94;;;8.87;100.00
42001;BME280;27689;48.390;10.856;2023-05-16T00:51:38;95767.56;;;8.93;100.00
42001;BME280;27689;48.390;10.856;2023-05-16T00:54:22;95762.50;;;8.91;100.00
42001;BME280;27689;48.390;10.856;2023-05-16T00:57:08;95763.31;;;8.92;100.00
42001;BME280;27689;48.390;10.856;2023-05-16T00:59:53;95756.84;;;8.96;100.00
42001;BME280;27689;48.390;10.856;2023-05-16T01:02:37;95763.81;;;9.05;100.00
42001;BME280;27689;48.390;10.856;2023-05-16T01:05:21;95754.91;;;8.98;100.00
42001;BME280;27689;48.390;10.856;2023-05-16T01:08:06;95753.94;;;8.99;100.00
42001;BME280;27689;48.390;10.856;2023-05-16T01:11:06;95761.34;;;9.03;100.00
42001;BME280;27689;48.390;10.856;2023-05-16T01:16:51;95752.69;;;9.03;100.00
42001;BME280;27689;48.390;10.856;2023-05-16T01:28:28;95742.00;;;8.96;100.00
42001;BME280;27689;48.390;10.856;2023-05-16T01:31:13;95747.81;;;8.90;100.00
42001;BME280;27689;48.390;10.856;2023-05-16T01:33:57;95745.03;;;8.92;100.00
42001;BME280;27689;48.390;10.856;2023-05-16T01:36:53;95735.41;;;8.92;100.00
42001;BME280;27689;48.390;10.856;2023-05-16T01:39:44;95742.59;;;8.90;100.00
42001;BME280;27689;48.390;10.856;2023-05-16T01:42:32;95743.69;;;8.88;100.00
42001;BME280;27689;48.390;10.856;2023-05-16T01:45:22;95738.09;;;8.82;100.00
42001;BME280;27689;48.390;10.856;2023-05-16T01:48:13;95729.97;;;8.86;100.00
42001;BME280;27689;48.390;10.856;2023-05-16T01:51:00;95727.84;;;8.71;100.00
42001;BME280;27689;48.390;10.856;2023-05-16T01:53:48;95723.03;;;8.67;100.00
42001;BME280;27689;48.390;10.856;2023-05-16T01:56:35;95724.25;;;8.72;100.00
42001;BME280;27689;48.390;10.856;2023-05-16T01:59:20;95731.13;;;8.73;100.00
42001;BME280;27689;48.390;10.856;2023-05-16T02:02:06;95735.81;;;8.70;100.00
42001;BME280;27689;48.390;10.856;2023-05-16T02:04:50;95734.72;;;8.63;100.00
42001;BME280;27689;48.390;10.856;2023-05-16T02:07:34;95732.13;;;8.63;100.00
42001;BME280;27689;48.390;10.856;2023-05-16T02:10:18;95728.69;;;8.62;100.00
42001;BME280;27689;48.390;10.856;2023-05-16T02:13:02;95733.53;;;8.57;100.00
42001;BME280;27689;48.390;10.856;2023-05-16T02:15:46;95730.16;;;8.37;100.00
42001;BME280;27689;48.390;10.856;2023-05-16T02:18:30;95716.72;;;8.23;100.00
42001;BME280;27689;48.390;10.856;2023-05-16T02:21:14;95728.66;;;8.25;100.00
42001;BME280;27689;48.390;10.856;2023-05-16T02:23:58;95727.16;;;8.32;100.00
42001;BME280;27689;48.390;10.856;2023-05-16T02:26:42;95726.31;;;8.32;100.00
42001;BME280;27689;48.390;10.856;2023-05-16T02:29:26;95721.94;;;8.32;100.00
42001;BME280;27689;48.390;10.856;2023-05-16T02:32:10;95726.31;;;8.32;100.00
42001;BME280;27689;48.390;10.856;2023-05-16T02:34:54;95732.50;;;8.31;100.00
42001;BME280;27689;48.390;10.856;2023-05-16T02:37:38;95732.63;;;8.29;100.00
42001;BME280;27689;48.390;10.856;2023-05-16T02:40:23;95729.22;;;8.29;100.00
42001;BME280;27689;48.390;10.856;2023-05-16T02:43:06;95734.84;;;8.24;100.00
42001;BME280;27689;48.390;10.856;2023-05-16T02:45:50;95729.22;;;8.19;100.00
42001;BME280;27689;48.390;10.856;2023-05-16T02:48:35;95731.31;;;8.16;100.00
42001;BME280;27689;48.390;10.856;2023-05-16T02:51:21;95738.88;;;8.09;100.00
42001;BME280;27689;48.390;10.856;2023-05-16T02:54:06;95736.38;;;8.07;100.00
42001;BME280;27689;48.390;10.856;2023-05-16T02:56:52;95735.47;;;7.99;100.00
42001;BME280;27689;48.390;10.856;2023-05-16T02:59:36;95731.88;;;7.90;100.00
42001;BME280;27689;48.390;10.856;2023-05-16T03:02:20;95725.72;;;7.91;100.00
42001;BME280;27689;48.390;10.856;2023-05-16T03:05:05;95727.94;;;7.86;100.00
42001;BME280;27689;48.390;10.856;2023-05-16T03:07:49;95731.34;;;7.87;100.00
42001;BME280;27689;48.390;10.856;2023-05-16T03:10:33;95730.00;;;7.83;100.00
42001;BME280;27689;48.390;10.856;2023-05-16T03:13:17;95725.91;;;7.51;100.00
42001;BME280;27689;48.390;10.856;2023-05-16T03:16:01;95718.22;;;7.50;100.00
42001;BME280;27689;48.390;10.856;2023-05-16T03:18:45;95727.53;;;7.42;100.00
42001;BME280;27689;48.390;10.856;2023-05-16T03:21:29;95729.31;;;7.42;100.00
42001;BME280;27689;48.390;10.856;2023-05-16T03:24:14;95733.03;;;7.49;100.00
42001;BME280;27689;48.390;10.856;2023-05-16T03:26:58;95731.53;;;7.56;100.00
42001;BME280;27689;48.390;10.856;2023-05-16T03:29:42;95733.84;;;7.59;100.00
42001;BME280;27689;48.390;10.856;2023-05-16T03:32:26;95736.75;;;7.56;100.00
42001;BME280;27689;48.390;10.856;2023-05-16T03:35:10;95741.25;;;7.54;100.00
42001;BME280;27689;48.390;10.856;2023-05-16T03:37:54;95742.47;;;7.60;100.00
42001;BME280;27689;48.390;10.856;2023-05-16T03:40:38;95748.00;;;7.57;100.00
42001;BME280;27689;48.390;10.856;2023-05-16T03:43:23;95749.91;;;7.55;100.00
42001;BME280;27689;48.390;10.856;2023-05-16T03:46:07;95745.09;;;7.60;100.00
42001;BME280;27689;48.390;10.856;2023-05-16T03:48:51;95750.59;;;7.57;100.00
42001;BME280;27689;48.390;10.856;2023-05-16T03:51:35;95753.59;;;7.62;100.00
42001;BME280;27689;48.390;10.856;2023-05-16T03:54:19;95754.69;;;7.59;100.00
42001;BME280;27689;48.390;10.856;2023-05-16T03:57:03;95747.00;;;7.58;100.00
42001;BME280;27689;48.390;10.856;2023-05-16T03:59:47;95751.94;;;7.61;100.00
42001;BME280;27689;48.390;10.856;2023-05-16T04:02:31;95754.16;;;7.56;100.00
42001;BME280;27689;48.390;10.856;2023-05-16T04:05:15;95754.00;;;7.57;100.00
42001;BME280;27689;48.390;10.856;2023-05-16T04:07:59;95759.09;;;7.59;100.00
42001;BME280;27689;48.390;10.856;2023-05-16T04:10:43;95761.69;;;7.59;100.00
42001;BME280;27689;48.390;10.856;2023-05-16T04:13:27;95762.50;;;7.59;100.00
42001;BME280;27689;48.390;10.856;2023-05-16T04:16:11;95760.72;;;7.60;100.00
42001;BME280;27689;48.390;10.856;2023-05-16T04:18:55;95756.91;;;7.64;100.00
42001;BME280;27689;48.390;10.856;2023-05-16T04:21:39;95757.84;;;7.72;100.00
42001;BME280;27689;48.390;10.856;2023-05-16T04:24:23;95748.38;;;7.81;100.00
42001;BME280;27689;48.390;10.856;2023-05-16T04:27:09;95753.03;;;7.87;100.00
42001;BME280;27689;48.390;10.856;2023-05-16T04:29:53;95751.53;;;7.94;100.00
42001;BME280;27689;48.390;10.856;2023-05-16T04:32:37;95750.28;;;7.98;100.00
42001;BME280;27689;48.390;10.856;2023-05-16T04:35:21;95756.72;;;8.13;100.00
42001;BME280;27689;48.390;10.856;2023-05-16T04:38:05;95751.88;;;8.19;100.00
42001;BME280;27689;48.390;10.856;2023-05-16T04:40:50;95752.97;;;8.26;100.00
42001;BME280;27689;48.390;10.856;2023-05-16T04:43:34;95752.69;;;8.29;100.00
42001;BME280;27689;48.390;10.856;2023-05-16T04:46:18;95746.38;;;8.41;100.00
42001;BME280;27689;48.390;10.856;2023-05-16T04:49:03;95742.78;;;8.42;100.00
42001;BME280;27689;48.390;10.856;2023-05-16T04:51:53;95742.50;;;8.45;100.00
42001;BME280;27689;48.390;10.856;2023-05-16T04:54:40;95743.28;;;8.55;100.00
42001;BME280;27689;48.390;10.856;2023-05-16T04:57:27;95749.72;;;8.61;100.00
42001;BME280;27689;48.390;10.856;2023-05-16T05:00:12;95743.16;;;8.57;100.00
42001;BME280;27689;48.390;10.856;2023-05-16T05:02:56;95746.44;;;8.59;100.00
42001;BME280;27689;48.390;10.856;2023-05-16T05:05:40;95751.22;;;8.63;100.00
42001;BME280;27689;48.390;10.856;2023-05-16T05:08:24;95753.41;;;8.68;100.00
42001;BME280;27689;48.390;10.856;2023-05-16T05:11:08;95757.53;;;8.70;100.00
42001;BME280;27689;48.390;10.856;2023-05-16T05:13:52;95761.59;;;8.82;100.00
42001;BME280;27689;48.390;10.856;2023-05-16T05:16:36;95759.66;;;8.84;100.00
42001;BME280;27689;48.390;10.856;2023-05-16T05:19:21;95756.38;;;8.82;100.00
42001;BME280;27689;48.390;10.856;2023-05-16T05:22:05;95752.50;;;8.87;100.00
42001;BME280;27689;48.390;10.856;2023-05-16T05:24:49;95748.94;;;8.88;100.00
42001;BME280;27689;48.390;10.856;2023-05-16T05:27:33;95750.78;;;8.95;100.00
42001;BME280;27689;48.390;10.856;2023-05-16T05:30:17;95753.66;;;9.02;100.00
42001;BME280;27689;48.390;10.856;2023-05-16T05:33:01;95744.53;;;9.06;100.00
42001;BME280;27689;48.390;10.856;2023-05-16T05:35:46;95753.31;;;9.14;100.00
42001;BME280;27689;48.390;10.856;2023-05-16T05:38:30;95747.94;;;9.16;100.00
42001;BME280;27689;48.390;10.856;2023-05-16T05:41:14;95751.44;;;9.25;100.00
42001;BME280;27689;48.390;10.856;2023-05-16T05:43:58;95745.50;;;9.32;100.00
42001;BME280;27689;48.390;10.856;2023-05-16T05:46:43;95741.59;;;9.36;100.00
42001;BME280;27689;48.390;10.856;2023-05-16T05:49:27;95746.63;;;9.47;100.00
42001;BME280;27689;48.390;10.856;2023-05-16T05:52:11;95744.59;;;9.59;100.00
42001;BME280;27689;48.390;10.856;2023-05-16T05:54:55;95752.50;;;9.67;100.00
42001;BME280;27689;48.390;10.856;2023-05-16T05:57:40;95745.34;;;9.69;100.00
42001;BME280;27689;48.390;10.856;2023-05-16T06:00:24;95750.81;;;9.76;100.00
42001;BME280;27689;48.390;10.856;2023-05-16T06:03:08;95754.38;;;9.75;100.00
42001;BME280;27689;48.390;10.856;2023-05-16T06:05:53;95758.19;;;9.80;100.00
42001;BME280;27689;48.390;10.856;2023-05-16T06:08:37;95754.38;;;9.93;100.00
42001;BME280;27689;48.390;10.856;2023-05-16T06:11:21;95748.06;;;10.03;100.00
42001;BME280;27689;48.390;10.856;2023-05-16T06:14:05;95742.03;;;10.20;100.00
42001;BME280;27689;48.390;10.856;2023-05-16T06:16:49;95744.00;;;10.27;100.00
42001;BME280;27689;48.390;10.856;2023-05-16T06:19:33;95744.38;;;10.32;100.00
42001;BME280;27689;48.390;10.856;2023-05-16T06:22:17;95755.06;;;10.38;100.00
42001;BME280;27689;48.390;10.856;2023-05-16T06:25:02;95757.50;;;10.40;100.00
42001;BME280;27689;48.390;10.856;2023-05-16T06:27:46;95749.84;;;10.38;100.00
42001;BME280;27689;48.390;10.856;2023-05-16T06:30:30;95756.38;;;10.42;100.00
42001;BME280;27689;48.390;10.856;2023-05-16T06:33:14;95755.66;;;10.58;100.00
42001;BME280;27689;48.390;10.856;2023-05-16T06:35:59;95749.97;;;10.63;100.00
42001;BME280;27689;48.390;10.856;2023-05-16T06:38:44;95751.59;;;10.64;100.00
42001;BME280;27689;48.390;10.856;2023-05-16T06:41:28;95753.09;;;10.66;100.00
42001;BME280;27689;48.390;10.856;2023-05-16T06:44:11;95752.00;;;10.77;100.00
42001;BME280;27689;48.390;10.856;2023-05-16T06:46:55;95756.09;;;10.79;100.00
42001;BME280;27689;48.390;10.856;2023-05-16T06:49:39;95752.84;;;10.85;100.00
42001;BME280;27689;48.390;10.856;2023-05-16T06:52:23;95754.84;;;10.91;100.00
42001;BME280;27689;48.390;10.856;2023-05-16T06:55:08;95759.94;;;11.01;100.00
42001;BME280;27689;48.390;10.856;2023-05-16T06:57:52;95758.66;;;11.13;100.00
42001;BME280;27689;48.390;10.856;2023-05-16T07:00:36;95756.25;;;11.20;100.00
42001;BME280;27689;48.390;10.856;2023-05-16T07:03:20;95754.66;;;11.27;100.00
42001;BME280;27689;48.390;10.856;2023-05-16T07:06:04;95761.06;;;11.41;100.00
42001;BME280;27689;48.390;10.856;2023-05-16T07:08:48;95759.44;;;11.48;100.00
42001;BME280;27689;48.390;10.856;2023-05-16T07:11:32;95763.06;;;11.63;100.00
42001;BME280;27689;48.390;10.856;2023-05-16T07:14:16;95760.94;;;11.75;100.00
42001;BME280;27689;48.390;10.856;2023-05-16T07:17:00;95762.66;;;11.84;100.00
42001;BME280;27689;48.390;10.856;2023-05-16T07:19:44;95762.13;;;11.88;100.00
42001;BME280;27689;48.390;10.856;2023-05-16T07:22:28;95768.03;;;11.90;100.00
42001;BME280;27689;48.390;10.856;2023-05-16T07:25:13;95764.28;;;12.01;100.00
42001;BME280;27689;48.390;10.856;2023-05-16T07:27:58;95764.13;;;12.11;100.00
42001;BME280;27689;48.390;10.856;2023-05-16T07:30:43;95766.25;;;12.23;100.00
42001;BME280;27689;48.390;10.856;2023-05-16T07:33:27;95775.25;;;12.37;100.00
42001;BME280;27689;48.390;10.856;2023-05-16T07:36:12;95778.50;;;12.47;100.00
42001;BME280;27689;48.390;10.856;2023-05-16T07:38:55;95772.59;;;12.53;100.00
42001;BME280;27689;48.390;10.856;2023-05-16T07:41:39;95770.47;;;12.49;100.00
42001;BME280;27689;48.390;10.856;2023-05-16T07:44:23;95764.56;;;12.55;100.00
42001;BME280;27689;48.390;10.856;2023-05-16T07:47:07;95759.78;;;12.58;100.00
42001;BME280;27689;48.390;10.856;2023-05-16T07:49:52;95762.22;;;12.68;100.00
42001;BME280;27689;48.390;10.856;2023-05-16T07:52:36;95761.84;;;12.79;100.00
42001;BME280;27689;48.390;10.856;2023-05-16T07:55:20;95760.53;;;12.83;100.00
42001;BME280;27689;48.390;10.856;2023-05-16T07:58:04;95759.66;;;12.99;100.00
42001;BME280;27689;48.390;10.856;2023-05-16T08:00:49;95758.69;;;13.00;100.00
42001;BME280;27689;48.390;10.856;2023-05-16T08:03:34;95763.06;;;13.07;100.00
42001;BME280;27689;48.390;10.856;2023-05-16T08:06:18;95761.59;;;13.13;100.00
42001;BME280;27689;48.390;10.856;2023-05-16T08:09:02;95758.81;;;13.06;100.00
42001;BME280;27689;48.390;10.856;2023-05-16T08:11:46;95767.34;;;13.08;100.00
42001;BME280;27689;48.390;10.856;2023-05-16T08:14:30;95775.06;;;13.10;100.00
42001;BME280;27689;48.390;10.856;2023-05-16T08:17:15;95772.09;;;13.13;100.00
42001;BME280;27689;48.390;10.856;2023-05-16T08:19:59;95769.81;;;13.18;100.00
42001;BME280;27689;48.390;10.856;2023-05-16T08:22:44;95771.25;;;13.29;100.00
42001;BME280;27689;48.390;10.856;2023-05-16T08:25:28;95774.53;;;13.31;100.00
42001;BME280;27689;48.390;10.856;2023-05-16T08:28:12;95766.25;;;13.42;100.00
42001;BME280;27689;48.390;10.856;2023-05-16T08:30:56;95770.75;;;13.56;100.00
42001;BME280;27689;48.390;10.856;2023-05-16T08:33:40;95777.59;;;13.65;100.00
42001;BME280;27689;48.390;10.856;2023-05-16T08:36:24;95779.38;;;13.73;99.24
42001;BME280;27689;48.390;10.856;2023-05-16T08:39:08;95777.75;;;13.72;100.00
42001;BME280;27689;48.390;10.856;2023-05-16T08:41:56;95773.78;;;13.76;100.00
42001;BME280;27689;48.390;10.856;2023-05-16T08:44:40;95770.09;;;13.85;100.00
42001;BME280;27689;48.390;10.856;2023-05-16T08:47:25;95771.03;;;13.92;100.00
42001;BME280;27689;48.390;10.856;2023-05-16T08:50:10;95771.47;;;13.96;98.23
42001;BME280;27689;48.390;10.856;2023-05-16T08:52:55;95778.03;;;14.00;97.33
42001;BME280;27689;48.390;10.856;2023-05-16T08:55:40;95775.00;;;13.88;99.60
42001;BME280;27689;48.390;10.856;2023-05-16T08:58:24;95775.94;;;13.95;97.38
42001;BME280;27689;48.390;10.856;2023-05-16T09:01:09;95771.84;;;13.93;99.70
42001;BME280;27689;48.390;10.856;2023-05-16T09:03:54;95772.13;;;13.98;98.03
42001;BME280;27689;48.390;10.856;2023-05-16T09:06:38;95778.00;;;14.08;99.71
42001;BME280;27689;48.390;10.856;2023-05-16T09:09:23;95775.94;;;14.18;100.00
42001;BME280;27689;48.390;10.856;2023-05-16T09:12:07;95774.59;;;14.22;96.32
42001;BME280;27689;48.390;10.856;2023-05-16T09:14:51;95778.22;;;14.21;95.56
42001;BME280;27689;48.390;10.856;2023-05-16T09:17:43;95783.31;;;14.23;95.65
42001;BME280;27689;48.390;10.856;2023-05-16T09:20:27;95789.75;;;14.20;96.19
42001;BME280;27689;48.390;10.856;2023-05-16T09:23:12;95780.03;;;14.21;97.98
42001;BME280;27689;48.390;10.856;2023-05-16T09:25:56;95771.94;;;14.22;100.00
42001;BME280;27689;48.390;10.856;2023-05-16T09:28:42;95770.78;;;14.39;96.89
42001;BME280;27689;48.390;10.856;2023-05-16T09:31:27;95763.38;;;14.43;98.23
42001;BME280;27689;48.390;10.856;2023-05-16T09:34:14;95754.31;;;14.45;95.51
42001;BME280;27689;48.390;10.856;2023-05-16T09:36:59;95755.94;;;14.46;97.55
42001;BME280;27689;48.390;10.856;2023-05-16T09:39:51;95764.50;;;14.63;94.43
42001;BME280;27689;48.390;10.856;2023-05-16T09:42:35;95760.72;;;14.66;97.28
42001;BME280;27689;48.390;10.856;2023-05-16T09:45:19;95756.25;;;14.81;95.19
42001;BME280;27689;48.390;10.856;2023-05-16T09:48:08;95754.97;;;14.92;93.62
42001;BME280;27689;48.390;10.856;2023-05-16T09:50:53;95755.59;;;15.08;91.38
42001;BME280;27689;48.390;10.856;2023-05-16T09:53:37;95752.50;;;15.20;93.31
42001;BME280;27689;48.390;10.856;2023-05-16T09:56:21;95747.31;;;15.26;90.55
42001;BME280;27689;48.390;10.856;2023-05-16T09:59:09;95743.09;;;15.32;88.29
42001;BME280;27689;48.390;10.856;2023-05-16T10:01:56;95749.78;;;15.28;87.97
42001;BME280;27689;48.390;10.856;2023-05-16T10:04:42;95753.41;;;15.27;86.16
42001;BME280;27689;48.390;10.856;2023-05-16T10:07:27;95745.22;;;15.22;89.71
42001;BME280;27689;48.390;10.856;2023-05-16T10:10:11;95744.91;;;15.31;90.66
42001;BME280;27689;48.390;10.856;2023-05-16T10:12:57;95740.59;;;15.45;87.44
42001;BME280;27689;48.390;10.856;2023-05-16T10:15:44;95735.16;;;15.46;86.76
42001;BME280;27689;48.390;10.856;2023-05-16T10:18:30;95736.06;;;15.53;89.67
42001;BME280;27689;48.390;10.856;2023-05-16T10:21:16;95744.88;;;15.61;88.92
42001;BME280;27689;48.390;10.856;2023-05-16T10:24:02;95752.69;;;15.69;88.61
42001;BME280;27689;48.390;10.856;2023-05-16T10:26:50;95748.34;;;15.61;85.36
42001;BME280;27689;48.390;10.856;2023-05-16T10:29:36;95745.88;;;15.45;86.11
42001;BME280;27689;48.390;10.856;2023-05-16T10:32:22;95742.56;;;15.36;89.49
42001;BME280;27689;48.390;10.856;2023-05-16T10:35:07;95755.84;;;15.43;87.87
42001;BME280;27689;48.390;10.856;2023-05-16T10:37:51;95749.84;;;15.34;89.56
42001;BME280;27689;48.390;10.856;2023-05-16T10:40:36;95743.38;;;15.37;87.58
42001;BME280;27689;48.390;10.856;2023-05-16T10:43:26;95737.91;;;15.38;91.05
42001;BME280;27689;48.390;10.856;2023-05-16T10:46:10;95737.97;;;15.45;88.34
42001;BME280;27689;48.390;10.856;2023-05-16T10:48:54;95738.69;;;15.53;86.61
42001;BME280;27689;48.390;10.856;2023-05-16T10:51:38;95745.78;;;15.53;83.11
42001;BME280;27689;48.390;10.856;2023-05-16T10:54:35;95729.03;;;15.25;84.82
42001;BME280;27689;48.390;10.856;2023-05-16T10:57:22;95729.88;;;15.10;86.97
42001;BME280;27689;48.390;10.856;2023-05-16T11:00:06;95746.69;;;15.09;89.48
42001;BME280;27689;48.390;10.856;2023-05-16T11:03:21;95745.41;;;15.05;86.69
42001;BME280;27689;48.390;10.856;2023-05-16T11:06:08;95744.53;;;14.98;86.69
42001;BME280;27689;48.390;10.856;2023-05-16T11:11:54;95750.16;;;14.95;87.31
42001;BME280;27689;48.390;10.856;2023-05-16T11:14:40;95743.88;;;14.96;88.95
42001;BME280;27689;48.390;10.856;2023-05-16T11:17:38;95748.88;;;14.91;89.95
42001;BME280;27689;48.390;10.856;2023-05-16T11:20:40;95747.16;;;14.84;93.40
42001;BME280;27689;48.390;10.856;2023-05-16T11:23:25;95741.78;;;14.77;93.62
42001;BME280;27689;48.390;10.856;2023-05-16T11:26:08;95740.03;;;14.69;96.35
42001;BME280;27689;48.390;10.856;2023-05-16T11:28:53;95744.88;;;14.66;96.87
42001;BME280;27689;48.390;10.856;2023-05-16T11:31:36;95753.69;;;14.58;97.29
42001;BME280;27689;48.390;10.856;2023-05-16T11:34:21;95756.75;;;14.47;99.40
42001;BME280;27689;48.390;10.856;2023-05-16T11:37:05;95751.38;;;14.40;99.89
42001;BME280;27689;48.390;10.856;2023-05-16T11:39:49;95749.09;;;14.37;100.00
42001;BME280;27689;48.390;10.856;2023-05-16T11:42:36;95754.53;;;14.36;100.00
42001;BME280;27689;48.390;10.856;2023-05-16T11:45:21;95742.34;;;14.35;100.00
42001;BME280;27689;48.390;10.856;2023-05-16T11:48:08;95728.06;;;14.29;100.00
42001;BME280;27689;48.390;10.856;2023-05-16T11:50:52;95741.66;;;14.41;100.00
42001;BME280;27689;48.390;10.856;2023-05-16T11:53:36;95741.31;;;14.44;100.00
42001;BME280;27689;48.390;10.856;2023-05-16T11:56:20;95747.16;;;14.54;100.00
42001;BME280;27689;48.390;10.856;2023-05-16T11:59:07;95748.31;;;14.52;100.00
42001;BME280;27689;48.390;10.856;2023-05-16T12:01:53;95749.59;;;14.56;100.00
42001;BME280;27689;48.390;10.856;2023-05-16T12:04:37;95750.34;;;14.64;100.00
42001;BME280;27689;48.390;10.856;2023-05-16T12:07:27;95747.06;;;14.39;100.00
42001;BME280;27689;48.390;10.856;2023-05-16T12:10:12;95758.88;;;14.29;100.00
42001;BME280;27689;48.390;10.856;2023-05-16T12:12:57;95763.47;;;14.12;100.00
42001;BME280;27689;48.390;10.856;2023-05-16T12:15:41;95775.00;;;13.88;100.00
42001;BME280;27689;48.390;10.856;2023-05-16T12:18:26;95779.63;;;13.63;100.00
42001;BME280;27689;48.390;10.856;2023-05-16T12:21:11;95795.34;;;13.71;100.00
42001;BME280;27689;48.390;10.856;2023-05-16T12:23:55;95792.06;;;13.69;100.00
42001;BME280;27689;48.390;10.856;2023-05-16T12:26:43;95798.38;;;13.29;100.00
42001;BME280;27689;48.390;10.856;2023-05-16T12:29:27;95798.53;;;13.28;100.00
42001;BME280;27689;48.390;10.856;2023-05-16T12:32:11;95806.09;;;13.31;100.00
42001;BME280;27689;48.390;10.856;2023-05-16T12:34:55;95811.34;;;12.67;100.00
42001;BME280;27689;48.390;10.856;2023-05-16T12:37:42;95820.06;;;12.19;100.00
42001;BME280;27689;48.390;10.856;2023-05-16T12:40:29;95823.03;;;12.08;100.00
42001;BME280;27689;48.390;10.856;2023-05-16T12:43:14;95835.50;;;12.06;100.00
42001;BME280;27689;48.390;10.856;2023-05-16T12:45:59;95813.03;;;12.12;100.00
42001;BME280;27689;48.390;10.856;2023-05-16T12:48:43;95816.31;;;12.30;100.00
42001;BME280;27689;48.390;10.856;2023-05-16T12:51:29;95827.97;;;12.27;100.00
42001;BME280;27689;48.390;10.856;2023-05-16T12:54:15;95817.63;;;12.26;100.00
42001;BME280;27689;48.390;10.856;2023-05-16T12:56:59;95823.19;;;12.23;100.00
42001;BME280;27689;48.390;10.856;2023-05-16T12:59:43;95827.28;;;12.17;100.00
42001;BME280;27689;48.390;10.856;2023-05-16T13:02:27;95817.94;;;12.07;100.00
42001;BME280;27689;48.390;10.856;2023-05-16T13:05:11;95815.00;;;12.10;100.00
42001;BME280;27689;48.390;10.856;2023-05-16T13:07:56;95826.63;;;12.07;100.00
42001;BME280;27689;48.390;10.856;2023-05-16T13:10:41;95824.16;;;12.06;100.00
42001;BME280;27689;48.390;10.856;2023-05-16T13:13:25;95832.06;;;12.14;100.00
42001;BME280;27689;48.390;10.856;2023-05-16T13:16:09;95826.00;;;12.13;100.00
42001;BME280;27689;48.390;10.856;2023-05-16T13:18:53;95827.63;;;12.14;100.00
42001;BME280;27689;48.390;10.856;2023-05-16T13:21:40;95823.34;;;12.05;100.00
42001;BME280;27689;48.390;10.856;2023-05-16T13:24:24;95822.38;;;12.14;100.00
42001;BME280;27689;48.390;10.856;2023-05-16T13:27:08;95826.16;;;12.28;100.00
42001;BME280;27689;48.390;10.856;2023-05-16T13:29:52;95819.25;;;12.43;100.00
42001;BME280;27689;48.390;10.856;2023-05-16T13:32:36;95820.75;;;12.46;100.00
42001;BME280;27689;48.390;10.856;2023-05-16T13:35:20;95828.94;;;12.51;100.00
42001;BME280;27689;48.390;10.856;2023-05-16T13:38:04;95833.53;;;12.41;100.00
42001;BME280;27689;48.390;10.856;2023-05-16T13:40:48;95843.41;;;12.30;100.00
42001;BME280;27689;48.390;10.856;2023-05-16T13:43:32;95837.00;;;12.17;100.00
42001;BME280;27689;48.390;10.856;2023-05-16T13:46:16;95843.72;;;12.19;100.00
42001;BME280;27689;48.390;10.856;2023-05-16T13:49:01;95834.66;;;12.06;100.00
42001;BME280;27689;48.390;10.856;2023-05-16T13:51:45;95844.34;;;12.05;100.00
42001;BME280;27689;48.390;10.856;2023-05-16T13:54:29;95852.03;;;11.90;100.00
42001;BME280;27689;48.390;10.856;2023-05-16T13:57:13;95859.25;;;11.88;100.00
42001;BME280;27689;48.390;10.856;2023-05-16T13:59:58;95863.53;;;11.81;100.00
42001;BME280;27689;48.390;10.856;2023-05-16T14:02:42;95868.25;;;11.78;100.00
42001;BME280;27689;48.390;10.856;2023-05-16T14:05:26;95867.59;;;11.76;100.00
42001;BME280;27689;48.390;10.856;2023-05-16T14:08:10;95867.56;;;11.68;100.00
42001;BME280;27689;48.390;10.856;2023-05-16T14:10:54;95866.88;;;11.65;100.00
42001;BME280;27689;48.390;10.856;2023-05-16T14:13:38;95875.06;;;11.62;100.00
42001;BME280;27689;48.390;10.856;2023-05-16T14:16:25;95858.66;;;11.60;100.00
42001;BME280;27689;48.390;10.856;2023-05-16T14:19:10;95857.31;;;11.48;100.00
42001;BME280;27689;48.390;10.856;2023-05-16T14:21:55;95862.53;;;11.40;100.00
42001;BME280;27689;48.390;10.856;2023-05-16T14:24:39;95871.38;;;11.39;100.00
42001;BME280;27689;48.390;10.856;2023-05-16T14:27:23;95871.03;;;11.34;100.00
42001;BME280;27689;48.390;10.856;2023-05-16T14:30:07;95875.44;;;11.34;100.00
42001;BME280;27689;48.390;10.856;2023-05-16T14:32:52;95880.03;;;11.31;100.00